Time;durP1;ratioP1;P1;durP2;ratioP2;P2;SDS_P1;SDS_P2;PMS_P1;PMS_P2;Temp;Humidity;BMP_temperature;BMP_pressure;BME280_temperature;BME280_humidity;BME280_pressure;Samples;Min_cycle;Max_cycle;Signal;HPM_P1;HPM_P2
2022/06/20 00:01:21;;;;;;;19.13;6.27;;;30.40;42.10;;;;;;5102346;27;20454;-86
2022/06/20 00:03:49;;;;;;;10.73;5.53;;;30.40;41.70;;;;;;5092844;28;20454;-85
2022/06/20 00:06:19;;;;;;;6.60;4.87;;;30.40;41.50;;;;;;5067556;28;20963;-85
2022/06/20 00:08:47;;;;;;;12.80;5.30;;;30.40;41.50;;;;;;5102522;27;20981;-86
2022/06/20 00:11:15;;;;;;;8.70;4.33;;;30.30;41.50;;;;;;5068819;28;20451;-85
2022/06/20 00:13:46;;;;;;;12.37;6.10;;;30.30;41.20;;;;;;5083912;27;20556;-86
2022/06/20 00:16:15;;;;;;;12.73;6.00;;;30.20;41.10;;;;;;5100444;27;20462;-85
2022/06/20 00:18:42;;;;;;;8.37;5.53;;;30.10;41.20;;;;;;5104233;27;20561;-90
2022/06/20 00:21:13;;;;;;;7.47;5.40;;;30.10;41.50;;;;;;5069257;27;20528;-84
2022/06/20 00:23:40;;;;;;;9.10;4.53;;;30.10;41.60;;;;;;5099083;27;20566;-85
2022/06/20 00:26:07;;;;;;;9.17;5.40;;;30.10;41.80;;;;;;5099812;27;20989;-87
2022/06/20 00:28:34;;;;;;;7.07;4.87;;;30.00;42.10;;;;;;5084948;27;20963;-88
2022/06/20 00:31:03;;;;;;;7.77;5.03;;;29.70;43.00;;;;;;5073645;27;20940;-85
2022/06/20 00:33:30;;;;;;;9.80;4.90;;;29.70;43.50;;;;;;5086049;27;20430;-86
2022/06/20 00:35:58;;;;;;;9.30;5.63;;;29.70;43.30;;;;;;5104910;27;21157;-85
2022/06/20 00:38:26;;;;;;;6.73;5.83;;;29.60;44.00;;;;;;5098440;27;20492;-85
2022/06/20 00:40:54;;;;;;;7.30;5.40;;;29.50;44.30;;;;;;5098594;27;20479;-86
2022/06/20 00:43:25;;;;;;;6.70;5.27;;;29.60;44.50;;;;;;5085118;27;21005;-87
2022/06/20 00:46:18;;;;;;;7.50;6.10;;;29.60;44.70;;;;;;5100124;27;20450;-83
2022/06/20 00:49:09;;;;;;;5.80;5.30;;;29.50;44.30;;;;;;5100648;27;21190;-85
2022/06/20 00:52:02;;;;;;;13.10;5.60;;;29.50;43.60;;;;;;5104284;27;20443;-86
2022/06/20 00:54:53;;;;;;;8.00;4.77;;;29.50;43.00;;;;;;5101771;27;20439;-86
2022/06/20 00:57:43;;;;;;;12.43;5.60;;;29.30;43.60;;;;;;5081703;28;20987;-83
2022/06/20 01:00:34;;;;;;;11.07;5.87;;;29.30;43.60;;;;;;5084106;28;20451;-88
2022/06/20 01:03:23;;;;;;;8.50;5.50;;;29.30;43.50;;;;;;5077539;27;20458;-86
2022/06/20 01:06:13;;;;;;;6.70;5.10;;;29.30;43.50;;;;;;5083607;28;20443;-87
2022/06/20 01:09:06;;;;;;;9.53;5.60;;;29.20;43.40;;;;;;5085232;27;20578;-85
2022/06/20 01:11:53;;;;;;;7.33;4.93;;;29.20;43.50;;;;;;5085505;27;20449;-85
2022/06/20 01:14:38;;;;;;;10.80;4.93;;;29.20;43.40;;;;;;5065962;28;20455;-85
2022/06/20 01:17:29;;;;;;;7.50;4.90;;;29.10;43.30;;;;;;5077237;28;20446;-88
2022/06/20 01:20:23;;;;;;;6.87;5.73;;;29.00;43.50;;;;;;5075943;28;20476;-88
2022/06/20 01:23:20;;;;;;;7.97;5.43;;;29.00;43.70;;;;;;5089647;28;20469;-85
2022/06/20 01:26:23;;;;;;;12.90;5.80;;;29.00;44.10;;;;;;5095123;27;20460;-86
2022/06/20 01:29:11;;;;;;;9.20;5.33;;;29.00;45.00;;;;;;5085655;27;20478;-86
2022/06/20 01:31:57;;;;;;;5.53;5.03;;;29.00;45.20;;;;;;5103288;27;21198;-87
2022/06/20 01:34:43;;;;;;;7.50;4.80;;;29.00;45.30;;;;;;5105770;27;20447;-87
2022/06/20 01:37:29;;;;;;;8.23;5.20;;;29.00;44.80;;;;;;5101371;27;20485;-88
2022/06/20 01:40:17;;;;;;;7.07;5.27;;;28.90;44.30;;;;;;5063550;28;20452;-86
2022/06/20 01:43:02;;;;;;;6.40;5.80;;;28.90;44.50;;;;;;5104173;27;20466;-86
2022/06/20 01:45:58;;;;;;;6.43;5.83;;;28.80;45.00;;;;;;5099613;27;20434;-85
2022/06/20 01:48:46;;;;;;;8.40;5.50;;;28.80;45.60;;;;;;5077474;28;20463;-89
2022/06/20 01:51:38;;;;;;;9.30;5.60;;;28.70;45.70;;;;;;5085948;28;20942;-83
2022/06/20 01:54:26;;;;;;;7.73;5.00;;;28.70;45.50;;;;;;5061717;28;20831;-85
2022/06/20 01:57:13;;;;;;;6.30;5.73;;;28.70;45.40;;;;;;5085536;28;20449;-86
2022/06/20 02:00:04;;;;;;;7.03;5.60;;;28.60;45.30;;;;;;5102955;27;21516;-88
2022/06/20 02:02:54;;;;;;;8.97;6.20;;;28.60;45.10;;;;;;5103292;28;20439;-87
2022/06/20 02:05:43;;;;;;;9.27;5.00;;;28.50;45.10;;;;;;5079365;28;20452;-88
2022/06/20 02:08:28;;;;;;;8.80;5.63;;;28.50;45.60;;;;;;5082079;28;20581;-87
2022/06/20 02:11:21;;;;;;;9.83;6.07;;;28.50;46.20;;;;;;5100864;28;20905;-86
2022/06/20 02:14:09;;;;;;;9.50;6.10;;;28.40;46.70;;;;;;5099552;28;20442;-86
2022/06/20 02:16:57;;;;;;;8.23;5.83;;;28.50;47.00;;;;;;5085139;27;20447;-86
2022/06/20 02:19:49;;;;;;;8.67;5.97;;;28.40;47.30;;;;;;5103459;27;21031;-87
2022/06/20 02:22:36;;;;;;;9.27;6.13;;;28.40;47.10;;;;;;5104047;27;20462;-86
2022/06/20 02:25:25;;;;;;;8.30;5.53;;;28.40;47.10;;;;;;5087014;27;20443;-86
2022/06/20 02:28:14;;;;;;;9.00;6.37;;;28.40;47.10;;;;;;5090190;28;20474;-87
2022/06/20 02:30:59;;;;;;;8.00;5.73;;;28.40;47.10;;;;;;5106909;27;20446;-86
2022/06/20 02:33:46;;;;;;;11.30;6.30;;;28.30;47.00;;;;;;5106310;27;20530;-89
2022/06/20 02:36:33;;;;;;;12.83;6.20;;;28.30;46.80;;;;;;5092636;27;20438;-86
2022/06/20 02:39:19;;;;;;;8.00;6.20;;;28.30;46.70;;;;;;5092114;27;21168;-87
2022/06/20 02:42:08;;;;;;;7.53;6.17;;;28.20;46.80;;;;;;5083479;28;20447;-87
2022/06/20 02:44:56;;;;;;;9.07;6.77;;;28.20;46.90;;;;;;5074004;27;20469;-85
2022/06/20 02:47:45;;;;;;;8.20;7.07;;;28.10;47.20;;;;;;5107421;27;20438;-85
2022/06/20 02:50:34;;;;;;;10.00;6.17;;;28.00;47.30;;;;;;5064201;28;20525;-86
2022/06/20 02:53:24;;;;;;;13.23;7.70;;;27.70;48.80;;;;;;5085771;28;20989;-86
2022/06/20 02:56:15;;;;;;;8.40;6.77;;;27.60;49.70;;;;;;5101634;27;20435;-86
2022/06/20 02:59:06;;;;;;;13.00;7.40;;;27.30;49.80;;;;;;5068154;28;20464;-85
2022/06/20 03:02:00;;;;;;;12.67;7.17;;;27.20;49.90;;;;;;5075310;27;20961;-85
2022/06/20 03:04:47;;;;;;;9.20;6.43;;;26.90;50.80;;;;;;5088724;27;20439;-88
2022/06/20 03:07:37;;;;;;;10.50;6.53;;;26.70;51.30;;;;;;5086870;27;20537;-87
2022/06/20 03:10:29;;;;;;;9.70;5.90;;;26.80;50.60;;;;;;5104306;27;20500;-86
2022/06/20 03:13:14;;;;;;;10.00;5.93;;;26.80;50.40;;;;;;5104781;27;20444;-85
2022/06/20 03:16:03;;;;;;;7.00;6.23;;;27.00;49.90;;;;;;5086522;27;20446;-85
2022/06/20 03:18:51;;;;;;;8.43;6.13;;;27.20;49.50;;;;;;5086509;27;20465;-87
2022/06/20 03:21:41;;;;;;;8.13;5.97;;;26.80;49.70;;;;;;5100757;27;20548;-90
2022/06/20 03:24:29;;;;;;;7.10;4.83;;;26.70;49.40;;;;;;5099761;27;20576;-88
2022/06/20 03:27:23;;;;;;;6.13;4.60;;;26.30;48.80;;;;;;5101223;27;20443;-86
2022/06/20 03:30:29;;;;;;;14.33;4.73;;;26.00;49.30;;;;;;5102944;27;20445;-89
2022/06/20 03:33:16;;;;;;;10.23;4.53;;;25.80;49.20;;;;;;5072248;28;20446;-86
2022/06/20 03:36:07;;;;;;;6.33;4.53;;;25.80;49.40;;;;;;5099170;27;20535;-87
2022/06/20 03:38:53;;;;;;;7.60;3.70;;;26.00;49.10;;;;;;5098268;27;20482;-86
2022/06/20 03:41:39;;;;;;;5.23;4.30;;;25.90;49.10;;;;;;5065559;27;20604;-86
2022/06/20 03:44:30;;;;;;;7.20;4.27;;;26.10;47.90;;;;;;5101103;27;20447;-86
2022/06/20 03:47:20;;;;;;;9.40;4.50;;;26.00;47.80;;;;;;5076591;28;21010;-85
2022/06/20 03:50:11;;;;;;;3.80;3.40;;;26.00;47.40;;;;;;5081813;27;20851;-84
2022/06/20 03:53:03;;;;;;;8.43;3.63;;;26.00;46.90;;;;;;5102812;27;20517;-86
2022/06/20 03:55:56;;;;;;;9.30;3.80;;;26.10;46.90;;;;;;5080664;28;20450;-86
2022/06/20 03:58:47;;;;;;;9.27;3.97;;;26.10;46.70;;;;;;5100157;27;20973;-86
2022/06/20 04:01:39;;;;;;;9.60;3.87;;;26.30;46.60;;;;;;5088222;27;20474;-85
2022/06/20 04:04:30;;;;;;;4.33;3.40;;;26.30;46.00;;;;;;5088600;27;20520;-84
2022/06/20 04:07:19;;;;;;;4.60;3.50;;;26.30;45.60;;;;;;5083194;27;20446;-86
2022/06/20 04:13:33;;;;;;;5.97;3.50;;;25.60;45.40;;;;;;5002952;28;20527;-87
2022/06/20 04:16:24;;;;;;;4.33;2.97;;;25.30;46.00;;;;;;5099946;27;20472;-85
2022/06/20 04:19:15;;;;;;;8.23;3.60;;;25.30;46.00;;;;;;5103221;27;20501;-86
2022/06/20 04:22:08;;;;;;;3.90;3.60;;;25.20;46.00;;;;;;5077635;27;20465;-85
2022/06/20 04:25:00;;;;;;;4.80;3.33;;;25.30;46.10;;;;;;5086413;27;20449;-87
2022/06/20 04:27:50;;;;;;;5.77;3.60;;;25.50;45.90;;;;;;5088460;27;20454;-84
2022/06/20 04:30:41;;;;;;;12.30;3.73;;;25.70;45.60;;;;;;5101404;27;20458;-84
2022/06/20 04:33:34;;;;;;;3.20;2.90;;;26.10;45.30;;;;;;5084652;27;20470;-85
2022/06/20 04:36:34;;;;;;;8.90;3.50;;;26.20;44.80;;;;;;5069492;28;20805;-84
2022/06/20 04:39:25;;;;;;;3.60;2.63;;;26.20;43.90;;;;;;5098975;27;20483;-85
2022/06/20 04:42:17;;;;;;;5.10;3.40;;;26.40;44.20;;;;;;5083933;27;20862;-85
2022/06/20 04:45:11;;;;;;;7.50;3.50;;;26.50;44.00;;;;;;5080065;27;20818;-84
2022/06/20 04:48:02;;;;;;;3.67;3.30;;;26.50;43.60;;;;;;5101923;27;20513;-85
2022/06/20 04:50:51;;;;;;;5.63;2.87;;;26.60;43.30;;;;;;5084629;28;20444;-85
2022/06/20 04:53:43;;;;;;;3.90;3.27;;;26.70;43.50;;;;;;5101440;27;20439;-84
2022/06/20 04:56:28;;;;;;;3.53;3.23;;;26.70;43.90;;;;;;5101105;27;20436;-84
2022/06/20 04:59:18;;;;;;;8.60;3.47;;;26.70;43.30;;;;;;5098349;28;20694;-84
2022/06/20 05:02:07;;;;;;;5.00;3.03;;;26.80;43.50;;;;;;5078692;27;22826;-87
2022/06/20 05:04:56;;;;;;;7.43;2.60;;;26.90;43.10;;;;;;5096714;27;20528;-84
2022/06/20 05:07:42;;;;;;;7.43;3.70;;;26.90;43.70;;;;;;5082708;27;20431;-88
2022/06/20 05:10:35;;;;;;;7.27;2.80;;;27.00;43.00;;;;;;5076744;27;21199;-84
2022/06/20 05:13:24;;;;;;;6.63;3.43;;;27.00;42.90;;;;;;5096833;27;20537;-86
2022/06/20 05:16:16;;;;;;;8.30;3.30;;;27.00;43.20;;;;;;5096757;28;20866;-85
2022/06/20 05:19:08;;;;;;;4.73;3.20;;;27.00;43.10;;;;;;5098468;27;21138;-84
2022/06/20 05:21:57;;;;;;;3.50;2.90;;;26.90;43.30;;;;;;5072981;27;21452;-84
2022/06/20 05:24:45;;;;;;;4.17;3.70;;;26.90;43.20;;;;;;5066849;28;20439;-87
2022/06/20 05:27:38;;;;;;;11.43;3.47;;;27.00;43.30;;;;;;5080233;27;20945;-87
2022/06/20 05:30:29;;;;;;;8.80;4.07;;;26.70;43.20;;;;;;5100557;27;20447;-84
2022/06/20 05:33:23;;;;;;;7.60;3.40;;;26.50;42.90;;;;;;5081491;27;20458;-84
2022/06/20 05:35:55;;;;;;;4.73;3.07;;;26.40;43.80;;;;;;5097559;27;20461;-85
2022/06/20 05:38:27;;;;;;;5.20;3.40;;;26.70;43.90;;;;;;5097976;27;20482;-87
2022/06/20 05:40:57;;;;;;;3.83;3.10;;;26.90;43.20;;;;;;5096513;27;21010;-85
2022/06/20 05:43:27;;;;;;;5.70;3.43;;;27.00;42.70;;;;;;5082338;28;20455;-86
2022/06/20 05:45:56;;;;;;;6.40;3.03;;;27.00;42.80;;;;;;5097080;28;20454;-88
2022/06/20 05:48:29;;;;;;;3.77;3.17;;;27.10;42.60;;;;;;5080184;28;21177;-85
2022/06/20 05:50:59;;;;;;;11.53;3.43;;;27.10;42.70;;;;;;5096947;27;20443;-85
2022/06/20 05:53:37;;;;;;;5.33;3.33;;;27.20;43.00;;;;;;5100610;28;20835;-85
2022/06/20 05:56:13;;;;;;;3.70;3.07;;;27.10;42.90;;;;;;5079068;28;20466;-85
2022/06/20 05:58:44;;;;;;;3.73;3.40;;;27.00;43.60;;;;;;5066096;28;20458;-87
2022/06/20 06:01:16;;;;;;;5.87;3.30;;;27.00;43.70;;;;;;5098379;28;21113;-86
2022/06/20 06:03:49;;;;;;;12.40;3.47;;;27.00;43.20;;;;;;5082720;28;20458;-86
2022/06/20 06:06:20;;;;;;;7.37;3.63;;;27.10;44.30;;;;;;5065998;28;21068;-88
2022/06/20 06:08:50;;;;;;;4.90;3.57;;;27.20;43.90;;;;;;5047200;28;20478;-86
2022/06/20 06:11:23;;;;;;;6.63;3.43;;;27.20;43.20;;;;;;5066952;28;20456;-85
2022/06/20 06:13:58;;;;;;;10.83;4.57;;;27.30;43.70;;;;;;5097884;28;20551;-88
2022/06/20 06:16:48;;;;;;;4.47;3.00;;;27.20;43.40;;;;;;5098994;28;20450;-85
2022/06/20 06:19:25;;;;;;;4.17;3.87;;;27.10;43.50;;;;;;5094413;28;20568;-85
2022/06/20 06:21:54;;;;;;;9.10;3.30;;;27.00;43.80;;;;;;5084671;28;20470;-85
2022/06/20 06:24:24;;;;;;;5.70;3.63;;;26.90;44.10;;;;;;5096709;28;20459;-86
2022/06/20 06:26:55;;;;;;;5.30;2.93;;;26.70;44.70;;;;;;5069551;28;20448;-88
2022/06/20 06:29:27;;;;;;;4.53;3.33;;;26.70;45.30;;;;;;5080945;28;20481;-86
2022/06/20 06:31:58;;;;;;;9.20;4.20;;;26.70;44.40;;;;;;5062844;28;20989;-86
2022/06/20 06:34:37;;;;;;;7.97;3.77;;;26.70;44.80;;;;;;5078074;28;20435;-87
2022/06/20 06:37:13;;;;;;;6.70;3.73;;;26.70;44.90;;;;;;5062383;28;20449;-85
2022/06/20 06:39:51;;;;;;;5.87;3.70;;;26.60;45.10;;;;;;5079733;28;20461;-86
2022/06/20 06:42:18;;;;;;;6.47;3.60;;;26.70;45.50;;;;;;5097416;28;20455;-88
2022/06/20 06:44:49;;;;;;;7.30;3.63;;;26.80;44.90;;;;;;5080196;28;20553;-84
2022/06/20 06:47:20;;;;;;;6.50;3.90;;;26.80;44.90;;;;;;5098638;28;20685;-85
2022/06/20 06:49:51;;;;;;;7.30;3.23;;;26.80;44.30;;;;;;5075243;28;20474;-85
2022/06/20 06:52:24;;;;;;;6.13;3.67;;;26.70;44.70;;;;;;5097999;28;20447;-88
2022/06/20 06:54:56;;;;;;;6.57;4.40;;;26.60;45.00;;;;;;5096266;28;20461;-85
2022/06/20 06:57:31;;;;;;;4.00;3.50;;;26.80;45.50;;;;;;5045615;28;20435;-88
2022/06/20 07:02:57;;;;;;;5.50;4.23;;;26.80;44.80;;;;;;5105007;27;20566;-87
2022/06/20 07:05:32;;;;;;;6.37;4.30;;;26.90;45.30;;;;;;5091776;28;21085;-87
2022/06/20 07:08:04;;;;;;;6.53;4.10;;;26.90;45.10;;;;;;5090193;28;20837;-87
2022/06/20 07:10:38;;;;;;;7.37;4.03;;;26.90;45.00;;;;;;5072549;28;20463;-87
2022/06/20 07:13:14;;;;;;;8.40;3.77;;;27.00;45.20;;;;;;5054941;28;20490;-89
2022/06/20 07:15:43;;;;;;;5.30;3.40;;;27.20;45.20;;;;;;5073262;28;20448;-86
2022/06/20 07:18:27;;;;;;;3.83;3.40;;;27.30;45.00;;;;;;5072617;28;21040;-86
2022/06/20 07:20:54;;;;;;;9.77;3.90;;;27.40;44.90;;;;;;5063812;28;20463;-86
2022/06/20 07:23:21;;;;;;;8.83;3.80;;;27.50;44.90;;;;;;5066281;28;20457;-87
2022/06/20 07:25:51;;;;;;;8.87;4.93;;;27.50;44.40;;;;;;5064033;28;21221;-87
2022/06/20 07:28:34;;;;;;;5.87;3.67;;;27.50;44.30;;;;;;5063332;28;20962;-86
2022/06/20 07:31:08;;;;;;;5.50;3.90;;;27.20;44.70;;;;;;5062187;28;21152;-87
2022/06/20 07:33:42;;;;;;;3.30;3.00;;;27.20;45.30;;;;;;5064996;28;20454;-89
2022/06/20 07:36:12;;;;;;;4.70;3.33;;;27.20;45.50;;;;;;5071776;28;20441;-86
2022/06/20 07:38:44;;;;;;;13.60;3.93;;;27.30;45.10;;;;;;5054750;28;20480;-86
2022/06/20 07:41:15;;;;;;;7.20;3.83;;;27.20;44.70;;;;;;5064901;28;20566;-85
2022/06/20 07:43:49;;;;;;;6.10;3.67;;;27.40;44.80;;;;;;5073545;28;20468;-87
2022/06/20 07:46:24;;;;;;;10.60;4.57;;;27.40;45.00;;;;;;5063014;28;20452;-87
2022/06/20 07:48:57;;;;;;;4.43;3.50;;;27.50;44.70;;;;;;5065654;28;20505;-86
2022/06/20 07:51:30;;;;;;;6.20;3.50;;;27.80;44.50;;;;;;5062683;28;20457;-85
2022/06/20 07:54:02;;;;;;;5.40;3.60;;;27.90;43.80;;;;;;5076995;28;20456;-86
2022/06/20 07:56:34;;;;;;;6.40;3.10;;;27.80;43.90;;;;;;5071344;28;20452;-86
2022/06/20 07:59:07;;;;;;;6.17;3.50;;;27.70;43.90;;;;;;5064321;28;20504;-85
2022/06/20 08:01:40;;;;;;;5.03;3.67;;;27.70;45.00;;;;;;5048358;28;20475;-85
2022/06/20 08:04:11;;;;;;;8.77;4.10;;;27.70;45.00;;;;;;5062205;28;20459;-86
2022/06/20 08:06:43;;;;;;;9.47;4.20;;;27.90;44.30;;;;;;5062953;28;20453;-85
2022/06/20 08:09:19;;;;;;;5.83;3.77;;;28.00;43.80;;;;;;5069750;28;20472;-86
2022/06/20 08:11:49;;;;;;;7.23;3.50;;;28.10;43.80;;;;;;5061645;28;20514;-86
2022/06/20 08:14:22;;;;;;;5.10;3.37;;;28.20;43.10;;;;;;5050303;28;20445;-87
2022/06/20 08:16:54;;;;;;;5.20;4.00;;;28.50;42.70;;;;;;5051998;28;20463;-86
2022/06/20 08:19:23;;;;;;;7.43;3.73;;;28.80;42.10;;;;;;5050141;28;20487;-88
2022/06/20 08:21:57;;;;;;;5.03;3.50;;;29.10;41.60;;;;;;5047658;28;21035;-86
2022/06/20 08:24:30;;;;;;;8.37;3.93;;;29.40;41.30;;;;;;5046211;28;20453;-88
2022/06/20 08:27:03;;;;;;;4.90;3.30;;;29.60;41.30;;;;;;5049012;28;20440;-87
2022/06/20 08:29:36;;;;;;;9.37;3.67;;;29.40;40.40;;;;;;5051560;28;20483;-87
2022/06/20 08:32:11;;;;;;;4.70;3.43;;;29.30;40.50;;;;;;5051149;28;20814;-86
2022/06/20 08:34:45;;;;;;;4.70;3.07;;;29.50;40.50;;;;;;5050564;28;20604;-85
2022/06/20 08:37:18;;;;;;;4.40;3.13;;;29.60;39.50;;;;;;5049391;28;20516;-87
2022/06/20 08:39:51;;;;;;;5.23;3.60;;;29.60;39.80;;;;;;5048199;28;20477;-85
2022/06/20 08:42:52;;;;;;;7.80;3.90;;;29.50;40.30;;;;;;5045643;28;20493;-88
2022/06/20 08:45:31;;;;;;;8.87;3.43;;;29.50;40.30;;;;;;5056302;28;21238;-86
2022/06/20 08:48:42;;;;;;;5.00;3.70;;;29.40;39.40;;;;;;5065743;28;20480;-88
2022/06/20 08:51:39;;;;;;;5.33;3.03;;;29.40;40.40;;;;;;5062237;28;20461;-88
2022/06/20 08:54:40;;;;;;;6.30;3.47;;;29.60;40.50;;;;;;5062624;28;21068;-87
2022/06/20 08:57:13;;;;;;;3.30;3.00;;;29.30;40.20;;;;;;5047288;28;20461;-85
2022/06/20 08:59:54;;;;;;;4.20;2.97;;;29.40;40.90;;;;;;5050350;28;20480;-87
2022/06/20 09:02:46;;;;;;;3.90;2.77;;;29.60;40.40;;;;;;5064478;28;20476;-87
2022/06/20 09:05:39;;;;;;;4.97;3.17;;;29.50;40.30;;;;;;5050617;28;20450;-86
2022/06/20 09:08:27;;;;;;;5.10;2.40;;;29.60;40.00;;;;;;5053759;28;20453;-86
2022/06/20 09:11:08;;;;;;;4.20;3.00;;;29.50;40.50;;;;;;5063140;28;20460;-88
2022/06/20 09:13:57;;;;;;;5.60;3.13;;;29.40;40.40;;;;;;5057998;28;20449;-84
2022/06/20 09:16:32;;;;;;;5.53;3.07;;;29.60;40.50;;;;;;5038860;28;20457;-85
2022/06/20 09:19:30;;;;;;;5.80;2.83;;;29.70;40.30;;;;;;5058788;28;20476;-88
2022/06/20 09:22:07;;;;;;;5.33;3.17;;;29.90;40.40;;;;;;5055043;28;21148;-86
2022/06/20 09:24:47;;;;;;;3.20;2.80;;;29.90;39.70;;;;;;5048393;28;20442;-86
2022/06/20 09:27:19;;;;;;;4.57;3.03;;;29.70;40.50;;;;;;5049064;28;20952;-86
2022/06/20 09:30:03;;;;;;;7.27;2.37;;;29.90;39.90;;;;;;5037608;28;20473;-86
2022/06/20 09:33:05;;;;;;;3.07;2.77;;;29.80;40.10;;;;;;5047859;28;20512;-85
2022/06/20 09:35:54;;;;;;;8.03;2.80;;;29.80;40.40;;;;;;5030961;28;20448;-87
2022/06/20 09:38:41;;;;;;;3.73;2.60;;;29.80;40.00;;;;;;5046669;28;20476;-89
2022/06/20 09:41:20;;;;;;;6.60;3.00;;;29.90;40.20;;;;;;5045029;28;20445;-87
2022/06/20 09:44:05;;;;;;;3.23;2.43;;;29.70;40.60;;;;;;5050543;28;20425;-87
2022/06/20 09:46:40;;;;;;;6.37;3.23;;;29.50;41.00;;;;;;5039876;28;20453;-86
2022/06/20 09:49:18;;;;;;;3.80;3.00;;;29.40;41.80;;;;;;5056130;28;20979;-85
2022/06/20 09:52:01;;;;;;;4.33;3.27;;;29.40;41.30;;;;;;5049265;28;20498;-85
2022/06/20 09:54:36;;;;;;;5.50;3.47;;;29.40;41.70;;;;;;5048361;28;21426;-87
2022/06/20 09:57:15;;;;;;;5.33;4.00;;;29.50;41.70;;;;;;5048502;28;20844;-85
2022/06/20 09:59:49;;;;;;;7.27;3.67;;;29.20;42.00;;;;;;5056812;28;20508;-85
2022/06/20 10:02:22;;;;;;;7.87;3.00;;;29.20;41.90;;;;;;5053279;28;20877;-87
2022/06/20 10:04:57;;;;;;;4.17;3.57;;;29.20;42.20;;;;;;5056238;28;20451;-88
2022/06/20 10:07:32;;;;;;;6.27;3.07;;;29.10;41.90;;;;;;5049913;28;20455;-89
2022/06/20 10:10:07;;;;;;;7.10;3.67;;;28.70;43.40;;;;;;5064327;28;20552;-88
2022/06/20 10:12:46;;;;;;;6.13;3.70;;;28.00;44.80;;;;;;5041353;28;20440;-87
2022/06/20 10:15:25;;;;;;;8.73;3.33;;;27.50;45.30;;;;;;5056397;28;20457;-85
2022/06/20 10:18:01;;;;;;;5.00;2.60;;;27.10;45.90;;;;;;5049422;28;21121;-89
2022/06/20 10:20:43;;;;;;;6.73;3.30;;;26.50;46.70;;;;;;5066651;28;20450;-89
2022/06/20 10:23:25;;;;;;;5.00;3.30;;;26.10;47.40;;;;;;5048575;28;20569;-86
2022/06/20 10:26:14;;;;;;;4.20;2.80;;;26.00;47.90;;;;;;5047203;28;20449;-86
2022/06/20 10:28:46;;;;;;;5.80;3.33;;;25.90;48.60;;;;;;5062551;28;20534;-89
2022/06/20 10:31:28;;;;;;;8.20;3.47;;;25.60;49.10;;;;;;5043223;28;21011;-88
2022/06/20 10:34:04;;;;;;;5.20;3.33;;;25.20;50.10;;;;;;5045795;28;20471;-86
2022/06/20 10:36:44;;;;;;;5.80;4.00;;;25.30;50.40;;;;;;5039283;28;20524;-87
2022/06/20 10:39:19;;;;;;;4.23;3.73;;;25.50;50.00;;;;;;5037076;28;20476;-88
2022/06/20 10:41:56;;;;;;;6.17;3.83;;;25.50;49.80;;;;;;5045509;28;20847;-87
2022/06/20 10:44:33;;;;;;;26.80;4.30;;;25.50;50.40;;;;;;5053221;28;21126;-87
2022/06/20 10:47:07;;;;;;;6.17;4.13;;;25.50;49.80;;;;;;5054666;28;20693;-87
2022/06/20 10:49:52;;;;;;;3.97;3.50;;;25.70;49.60;;;;;;5046596;28;20471;-89
2022/06/20 10:52:36;;;;;;;4.00;3.60;;;25.80;49.50;;;;;;5050365;28;21771;-87
2022/06/20 10:55:15;;;;;;;9.53;4.23;;;25.80;49.90;;;;;;5063462;28;20449;-86
2022/06/20 10:57:52;;;;;;;5.60;3.60;;;25.70;49.50;;;;;;5051976;28;21027;-89
2022/06/20 11:00:25;;;;;;;5.73;4.37;;;25.90;49.30;;;;;;5050584;28;21702;-87
2022/06/20 11:03:12;;;;;;;6.77;5.30;;;25.70;49.60;;;;;;5045896;28;20530;-92
2022/06/20 11:05:44;;;;;;;5.67;5.00;;;25.30;50.00;;;;;;5056721;28;20449;-88
2022/06/20 11:08:26;;;;;;;7.77;5.53;;;25.10;51.00;;;;;;5048727;28;20877;-87
2022/06/20 11:11:11;;;;;;;7.27;5.53;;;25.20;51.20;;;;;;5063849;28;21542;-87
2022/06/20 11:13:47;;;;;;;7.20;6.23;;;25.10;51.10;;;;;;5051409;28;20450;-87
2022/06/20 11:16:26;;;;;;;9.13;5.40;;;24.90;51.60;;;;;;5046954;28;20443;-87
2022/06/20 11:19:07;;;;;;;7.03;6.33;;;25.00;51.70;;;;;;5048099;28;20461;-88
2022/06/20 11:21:40;;;;;;;8.93;5.67;;;24.80;51.80;;;;;;5048439;28;20455;-87
2022/06/20 11:24:19;;;;;;;9.77;6.20;;;24.70;52.30;;;;;;5047245;28;20479;-86
2022/06/20 11:26:59;;;;;;;8.40;5.97;;;24.70;52.70;;;;;;5035867;28;20479;-88
2022/06/20 11:29:39;;;;;;;7.77;5.63;;;24.70;52.50;;;;;;5039955;28;20477;-86
2022/06/20 11:32:16;;;;;;;5.97;5.43;;;24.50;53.20;;;;;;5047260;28;20444;-89
2022/06/20 11:35:08;;;;;;;5.90;5.00;;;24.10;53.60;;;;;;5057288;28;20448;-85
2022/06/20 11:37:55;;;;;;;6.17;5.17;;;24.00;54.50;;;;;;5050938;28;20548;-88
2022/06/20 11:40:38;;;;;;;7.50;4.90;;;24.10;54.30;;;;;;5055288;28;20455;-91
2022/06/20 11:43:37;;;;;;;5.90;5.40;;;24.30;53.60;;;;;;5051155;28;20499;-88
2022/06/20 11:46:19;;;;;;;4.70;4.17;;;23.80;54.40;;;;;;5032157;28;20461;-87
2022/06/20 11:48:59;;;;;;;3.70;3.03;;;24.00;54.40;;;;;;5049998;28;20481;-86
2022/06/20 11:51:35;;;;;;;4.23;2.87;;;24.20;53.30;;;;;;5053091;28;20453;-87
2022/06/20 11:54:13;;;;;;;3.40;3.10;;;24.30;53.00;;;;;;5052253;28;20441;-90
2022/06/20 11:56:49;;;;;;;3.30;2.13;;;24.30;52.40;;;;;;5054081;28;20465;-89
2022/06/20 11:59:24;;;;;;;3.20;2.70;;;24.20;52.30;;;;;;5053924;28;20465;-87
2022/06/20 12:01:58;;;;;;;2.40;2.20;;;24.30;52.30;;;;;;5055044;28;20891;-87
2022/06/20 12:04:34;;;;;;;2.53;2.33;;;24.40;52.10;;;;;;5052870;28;20452;-87
2022/06/20 12:07:10;;;;;;;3.23;2.23;;;24.30;52.10;;;;;;5059701;28;20448;-88
2022/06/20 12:09:44;;;;;;;3.50;2.97;;;24.30;52.20;;;;;;5051156;28;20472;-88
2022/06/20 12:12:21;;;;;;;3.73;2.20;;;24.50;52.20;;;;;;5052490;28;20441;-88
2022/06/20 12:15:01;;;;;;;2.77;2.47;;;24.70;51.50;;;;;;5053771;28;20444;-88
2022/06/20 12:17:36;;;;;;;2.40;2.20;;;24.60;51.60;;;;;;5050478;28;20460;-88
2022/06/20 12:23:24;;;;;;;2.43;2.23;;;24.60;51.30;;;;;;5049399;28;20465;-87
2022/06/20 12:25:55;;;;;;;3.50;2.30;;;24.50;51.10;;;;;;5048546;28;20459;-86
2022/06/20 12:28:24;;;;;;;2.67;2.47;;;24.00;52.10;;;;;;5051218;28;20480;-88
2022/06/20 12:31:01;;;;;;;3.00;2.50;;;23.90;52.20;;;;;;5033718;28;20445;-90
2022/06/20 12:33:30;;;;;;;2.33;2.13;;;23.80;52.80;;;;;;5052531;28;20456;-87
2022/06/20 12:36:04;;;;;;;2.60;2.40;;;23.70;53.20;;;;;;5052471;28;20483;-87
2022/06/20 12:38:38;;;;;;;2.40;2.20;;;23.80;52.80;;;;;;5046621;28;20489;-87
2022/06/20 12:41:09;;;;;;;7.93;2.53;;;23.50;53.10;;;;;;5056423;28;21930;-86
2022/06/20 12:43:44;;;;;;;3.23;2.17;;;23.80;52.90;;;;;;5048878;28;20705;-88
2022/06/20 12:46:29;;;;;;;2.53;2.20;;;23.60;52.90;;;;;;5031613;28;21043;-86
2022/06/20 12:49:23;;;;;;;2.40;2.10;;;23.70;53.20;;;;;;5048651;28;20562;-87
2022/06/20 12:51:58;;;;;;;3.10;2.50;;;23.90;52.80;;;;;;5048125;28;20468;-87
2022/06/20 12:54:58;;;;;;;2.40;2.20;;;24.00;52.40;;;;;;5040893;28;20437;-87
2022/06/20 12:57:50;;;;;;;3.43;2.57;;;24.00;52.40;;;;;;5016981;28;20457;-86
2022/06/20 13:00:26;;;;;;;2.03;1.87;;;24.00;52.20;;;;;;5050628;28;20465;-86
2022/06/20 13:03:27;;;;;;;2.40;2.20;;;24.10;52.20;;;;;;5048155;28;20480;-87
2022/06/20 13:06:07;;;;;;;3.20;2.10;;;24.00;52.40;;;;;;5017666;28;21201;-87
2022/06/20 13:08:53;;;;;;;2.13;1.93;;;24.00;52.30;;;;;;5064459;28;20472;-88
2022/06/20 13:11:32;;;;;;;1.90;1.80;;;24.00;52.50;;;;;;5053195;28;20445;-87
2022/06/20 13:14:27;;;;;;;1.57;1.23;;;23.90;52.30;;;;;;5051132;28;21157;-86
2022/06/20 13:17:05;;;;;;;1.43;1.33;;;23.90;50.90;;;;;;5047275;28;20460;-84
2022/06/20 13:19:44;;;;;;;1.50;1.20;;;24.10;50.90;;;;;;5051127;28;20477;-85
2022/06/20 13:22:20;;;;;;;1.50;1.40;;;23.90;50.00;;;;;;5048290;28;20444;-86
2022/06/20 13:25:04;;;;;;;1.30;1.20;;;24.00;50.00;;;;;;5062778;28;21125;-85
2022/06/20 13:27:45;;;;;;;1.70;1.00;;;24.00;49.80;;;;;;5032952;28;20475;-87
2022/06/20 13:30:21;;;;;;;1.20;1.10;;;24.00;49.20;;;;;;5048514;28;20481;-87
2022/06/20 13:32:58;;;;;;;2.20;1.20;;;24.00;49.20;;;;;;5049632;28;21034;-86
2022/06/20 13:35:32;;;;;;;1.40;1.30;;;24.10;49.50;;;;;;5048456;28;21026;-86
2022/06/20 13:38:10;;;;;;;1.60;1.17;;;24.10;48.90;;;;;;5056625;28;20452;-87
2022/06/20 13:40:54;;;;;;;1.20;1.10;;;24.10;49.10;;;;;;5048206;28;21082;-87
2022/06/20 13:43:30;;;;;;;1.20;1.10;;;24.10;49.60;;;;;;5048580;28;20463;-87
2022/06/20 13:46:01;;;;;;;3.30;1.23;;;24.20;48.50;;;;;;5048463;28;20458;-86
2022/06/20 13:48:36;;;;;;;1.30;1.20;;;24.10;48.40;;;;;;5049652;28;20469;-86
2022/06/20 13:51:10;;;;;;;1.30;1.10;;;24.10;48.70;;;;;;5049659;28;20445;-86
2022/06/20 13:53:46;;;;;;;1.73;0.70;;;24.10;48.80;;;;;;5040333;28;20448;-86
2022/06/20 13:56:27;;;;;;;1.03;0.93;;;24.10;48.30;;;;;;5050772;28;20456;-86
2022/06/20 13:59:15;;;;;;;3.10;1.07;;;24.10;49.00;;;;;;5061168;28;20472;-86
2022/06/20 14:01:54;;;;;;;1.03;0.93;;;24.10;48.40;;;;;;5047127;28;20456;-85
2022/06/20 14:04:22;;;;;;;0.87;0.80;;;24.20;48.40;;;;;;5049404;28;20839;-87
2022/06/20 14:06:54;;;;;;;1.20;1.10;;;24.30;48.00;;;;;;5050559;28;20460;-86